sensor_id;sensor_type;location;lat;lon;timestamp;pressure;altitude;pressure_sealevel;temperature;humidity
30875;BME280;17581;43.222;27.924;2023-01-29T00:01:28;100908.34;;;3.90;64.80
30875;BME280;17581;43.222;27.924;2023-01-29T00:03:55;100920.66;;;3.93;64.63
30875;BME280;17581;43.222;27.924;2023-01-29T00:06:20;100902.22;;;3.71;64.63
30875;BME280;17581;43.222;27.924;2023-01-29T00:08:47;100915.00;;;3.81;64.70
30875;BME280;17581;43.222;27.924;2023-01-29T00:11:13;100912.56;;;3.77;64.46
30875;BME280;17581;43.222;27.924;2023-01-29T00:13:40;100923.03;;;3.80;64.35
30875;BME280;17581;43.222;27.924;2023-01-29T00:16:06;100916.00;;;3.79;64.12
30875;BME280;17581;43.222;27.924;2023-01-29T00:18:31;100914.13;;;3.81;64.33
30875;BME280;17581;43.222;27.924;2023-01-29T00:20:57;100911.50;;;3.62;64.51
30875;BME280;17581;43.222;27.924;2023-01-29T00:23:22;100936.16;;;3.66;64.24
30875;BME280;17581;43.222;27.924;2023-01-29T00:25:49;100920.41;;;3.61;64.37
30875;BME280;17581;43.222;27.924;2023-01-29T00:28:14;100921.38;;;3.60;64.72
30875;BME280;17581;43.222;27.924;2023-01-29T00:30:40;100922.78;;;3.67;64.77
30875;BME280;17581;43.222;27.924;2023-01-29T00:33:06;100914.16;;;3.62;64.47
30875;BME280;17581;43.222;27.924;2023-01-29T00:35:31;100921.28;;;3.62;64.59
30875;BME280;17581;43.222;27.924;2023-01-29T00:37:57;100926.25;;;3.69;65.22
30875;BME280;17581;43.222;27.924;2023-01-29T00:40:24;100921.78;;;3.70;64.97
30875;BME280;17581;43.222;27.924;2023-01-29T00:42:50;100899.81;;;3.48;65.16
30875;BME280;17581;43.222;27.924;2023-01-29T00:45:34;100901.50;;;3.49;64.79
30875;BME280;17581;43.222;27.924;2023-01-29T00:48:03;100917.97;;;3.57;64.95
30875;BME280;17581;43.222;27.924;2023-01-29T00:50:29;100925.97;;;3.57;64.80
30875;BME280;17581;43.222;27.924;2023-01-29T00:52:55;100929.41;;;3.59;64.44
30875;BME280;17581;43.222;27.924;2023-01-29T00:55:20;100927.53;;;3.61;64.40
30875;BME280;17581;43.222;27.924;2023-01-29T00:57:47;100904.91;;;3.52;64.45
30875;BME280;17581;43.222;27.924;2023-01-29T01:00:15;100909.28;;;3.53;64.54
30875;BME280;17581;43.222;27.924;2023-01-29T01:02:41;100920.78;;;3.54;64.53
30875;BME280;17581;43.222;27.924;2023-01-29T01:05:26;100923.63;;;3.68;64.72
30875;BME280;17581;43.222;27.924;2023-01-29T01:07:53;100926.97;;;3.73;64.09
30875;BME280;17581;43.222;27.924;2023-01-29T01:10:30;100914.72;;;3.69;63.83
30875;BME280;17581;43.222;27.924;2023-01-29T01:12:59;100913.59;;;3.56;64.19
30875;BME280;17581;43.222;27.924;2023-01-29T01:15:38;100923.78;;;3.46;64.31
30875;BME280;17581;43.222;27.924;2023-01-29T01:18:04;100911.38;;;3.47;64.08
30875;BME280;17581;43.222;27.924;2023-01-29T01:20:32;100931.28;;;3.57;64.27
30875;BME280;17581;43.222;27.924;2023-01-29T01:22:58;100934.56;;;3.62;64.23
30875;BME280;17581;43.222;27.924;2023-01-29T01:25:25;100914.31;;;3.41;64.29
30875;BME280;17581;43.222;27.924;2023-01-29T01:27:52;100927.91;;;3.53;64.16
30875;BME280;17581;43.222;27.924;2023-01-29T01:30:18;100933.28;;;3.52;64.36
30875;BME280;17581;43.222;27.924;2023-01-29T01:32:43;100928.31;;;3.63;63.82
30875;BME280;17581;43.222;27.924;2023-01-29T01:35:10;100931.28;;;3.57;63.37
30875;BME280;17581;43.222;27.924;2023-01-29T01:37:35;100937.09;;;3.46;64.12
30875;BME280;17581;43.222;27.924;2023-01-29T01:40:06;100930.13;;;3.44;64.71
30875;BME280;17581;43.222;27.924;2023-01-29T01:42:39;100940.75;;;3.44;64.76
30875;BME280;17581;43.222;27.924;2023-01-29T01:45:07;100943.06;;;3.33;65.13
30875;BME280;17581;43.222;27.924;2023-01-29T01:47:56;100956.22;;;3.36;64.91
30875;BME280;17581;43.222;27.924;2023-01-29T01:50:37;100945.16;;;3.45;64.50
30875;BME280;17581;43.222;27.924;2023-01-29T01:53:07;100943.50;;;3.42;64.92
30875;BME280;17581;43.222;27.924;2023-01-29T01:55:36;100963.03;;;3.41;64.64
30875;BME280;17581;43.222;27.924;2023-01-29T01:58:07;100945.44;;;3.39;65.06
30875;BME280;17581;43.222;27.924;2023-01-29T02:00:35;100953.84;;;3.29;64.75
30875;BME280;17581;43.222;27.924;2023-01-29T02:03:01;100969.09;;;3.45;65.03
30875;BME280;17581;43.222;27.924;2023-01-29T02:05:46;100957.56;;;3.25;65.03
30875;BME280;17581;43.222;27.924;2023-01-29T02:08:59;100959.16;;;3.29;65.25
30875;BME280;17581;43.222;27.924;2023-01-29T02:11:41;100964.91;;;3.39;64.88
30875;BME280;17581;43.222;27.924;2023-01-29T02:14:07;100962.13;;;3.42;64.64
30875;BME280;17581;43.222;27.924;2023-01-29T02:16:34;100975.03;;;3.50;64.63
30875;BME280;17581;43.222;27.924;2023-01-29T02:19:00;100956.66;;;3.45;64.30
30875;BME280;17581;43.222;27.924;2023-01-29T02:21:49;100974.13;;;3.51;64.37
30875;BME280;17581;43.222;27.924;2023-01-29T02:24:44;100971.34;;;3.34;64.63
30875;BME280;17581;43.222;27.924;2023-01-29T02:27:36;100963.53;;;3.49;64.60
30875;BME280;17581;43.222;27.924;2023-01-29T02:30:37;100965.19;;;3.52;64.29
30875;BME280;17581;43.222;27.924;2023-01-29T02:33:21;100958.78;;;3.56;64.39
30875;BME280;17581;43.222;27.924;2023-01-29T02:36:01;100962.75;;;3.66;64.58
30875;BME280;17581;43.222;27.924;2023-01-29T02:49:14;100935.59;;;3.41;64.33
30875;BME280;17581;43.222;27.924;2023-01-29T02:54:34;100915.75;;;3.10;63.85
30875;BME280;17581;43.222;27.924;2023-01-29T02:57:09;100921.63;;;2.98;64.01
30875;BME280;17581;43.222;27.924;2023-01-29T02:59:44;100891.25;;;2.85;63.76
30875;BME280;17581;43.222;27.924;2023-01-29T03:02:27;100912.50;;;2.85;63.84
30875;BME280;17581;43.222;27.924;2023-01-29T03:04:59;100910.94;;;2.61;64.59
30875;BME280;17581;43.222;27.924;2023-01-29T03:07:29;100916.91;;;2.66;64.81
30875;BME280;17581;43.222;27.924;2023-01-29T03:13:34;100923.41;;;2.59;65.72
30875;BME280;17581;43.222;27.924;2023-01-29T03:16:05;100912.94;;;2.56;65.90
30875;BME280;17581;43.222;27.924;2023-01-29T03:18:39;100909.09;;;2.63;65.86
30875;BME280;17581;43.222;27.924;2023-01-29T03:21:13;100917.25;;;2.58;65.98
30875;BME280;17581;43.222;27.924;2023-01-29T03:24:00;100920.91;;;2.56;66.17
30875;BME280;17581;43.222;27.924;2023-01-29T03:26:44;100912.13;;;2.54;66.02
30875;BME280;17581;43.222;27.924;2023-01-29T03:29:30;100897.59;;;2.42;66.12
30875;BME280;17581;43.222;27.924;2023-01-29T03:32:16;100911.69;;;2.44;66.38
30875;BME280;17581;43.222;27.924;2023-01-29T03:34:48;100906.44;;;2.43;66.22
30875;BME280;17581;43.222;27.924;2023-01-29T03:39:53;100905.09;;;2.33;65.94
30875;BME280;17581;43.222;27.924;2023-01-29T03:45:58;100912.13;;;2.34;66.22
30875;BME280;17581;43.222;27.924;2023-01-29T03:48:52;100919.00;;;2.17;66.56
30875;BME280;17581;43.222;27.924;2023-01-29T03:51:31;100933.16;;;2.18;67.14
30875;BME280;17581;43.222;27.924;2023-01-29T03:54:07;100918.88;;;2.00;67.10
30875;BME280;17581;43.222;27.924;2023-01-29T03:59:05;100915.56;;;1.95;67.52
30875;BME280;17581;43.222;27.924;2023-01-29T04:02:04;100919.47;;;2.07;67.79
30875;BME280;17581;43.222;27.924;2023-01-29T04:04:37;100904.69;;;2.01;67.84
30875;BME280;17581;43.222;27.924;2023-01-29T04:07:16;100918.22;;;2.15;67.80
30875;BME280;17581;43.222;27.924;2023-01-29T04:10:08;100923.28;;;2.22;67.78
30875;BME280;17581;43.222;27.924;2023-01-29T04:12:44;100917.38;;;2.15;67.93
30875;BME280;17581;43.222;27.924;2023-01-29T04:15:13;100923.66;;;2.12;68.56
30875;BME280;17581;43.222;27.924;2023-01-29T04:17:44;100939.84;;;2.06;68.88
30875;BME280;17581;43.222;27.924;2023-01-29T04:20:12;100944.59;;;2.20;68.84
30875;BME280;17581;43.222;27.924;2023-01-29T04:22:39;100932.75;;;2.27;68.90
30875;BME280;17581;43.222;27.924;2023-01-29T04:25:14;100956.84;;;2.23;68.84
30875;BME280;17581;43.222;27.924;2023-01-29T04:35:31;101005.03;;;2.54;68.20
30875;BME280;17581;43.222;27.924;2023-01-29T04:41:04;101027.97;;;2.56;68.64
30875;BME280;17581;43.222;27.924;2023-01-29T04:46:34;101022.53;;;2.80;68.81
30875;BME280;17581;43.222;27.924;2023-01-29T04:49:23;101023.41;;;2.80;68.39
30875;BME280;17581;43.222;27.924;2023-01-29T04:57:23;101042.25;;;2.94;68.47
30875;BME280;17581;43.222;27.924;2023-01-29T05:00:03;101043.84;;;2.98;68.92
30875;BME280;17581;43.222;27.924;2023-01-29T05:02:34;101028.16;;;2.92;68.99
30875;BME280;17581;43.222;27.924;2023-01-29T05:05:02;101047.69;;;2.91;68.65
30875;BME280;17581;43.222;27.924;2023-01-29T05:07:29;101056.06;;;3.02;68.47
30875;BME280;17581;43.222;27.924;2023-01-29T05:09:55;101039.59;;;2.94;68.14
30875;BME280;17581;43.222;27.924;2023-01-29T05:12:24;101032.94;;;3.04;68.25
30875;BME280;17581;43.222;27.924;2023-01-29T05:14:52;101051.09;;;3.15;68.27
30875;BME280;17581;43.222;27.924;2023-01-29T05:17:20;101057.84;;;3.22;68.38
30875;BME280;17581;43.222;27.924;2023-01-29T05:19:46;101039.38;;;3.19;67.92
30875;BME280;17581;43.222;27.924;2023-01-29T05:22:15;101035.97;;;3.15;67.70
30875;BME280;17581;43.222;27.924;2023-01-29T05:24:41;101062.00;;;3.27;67.32
30875;BME280;17581;43.222;27.924;2023-01-29T05:27:20;101045.41;;;3.22;67.62
30875;BME280;17581;43.222;27.924;2023-01-29T05:30:05;101054.84;;;3.29;67.29
30875;BME280;17581;43.222;27.924;2023-01-29T05:32:31;101058.88;;;3.38;66.85
30875;BME280;17581;43.222;27.924;2023-01-29T05:34:56;101040.28;;;3.38;66.77
30875;BME280;17581;43.222;27.924;2023-01-29T05:37:22;101052.97;;;3.32;66.40
30875;BME280;17581;43.222;27.924;2023-01-29T05:39:47;101053.13;;;3.28;67.00
30875;BME280;17581;43.222;27.924;2023-01-29T05:42:13;101058.16;;;3.35;67.31
30875;BME280;17581;43.222;27.924;2023-01-29T05:44:38;101056.16;;;3.40;66.76
30875;BME280;17581;43.222;27.924;2023-01-29T05:47:04;101067.66;;;3.40;67.02
30875;BME280;17581;43.222;27.924;2023-01-29T05:49:30;101061.59;;;3.37;66.65
30875;BME280;17581;43.222;27.924;2023-01-29T05:51:55;101069.38;;;3.41;66.69
30875;BME280;17581;43.222;27.924;2023-01-29T05:54:21;101074.09;;;3.35;67.05
30875;BME280;17581;43.222;27.924;2023-01-29T05:56:46;101063.16;;;3.42;66.82
30875;BME280;17581;43.222;27.924;2023-01-29T05:59:12;101075.28;;;3.48;66.43
30875;BME280;17581;43.222;27.924;2023-01-29T06:01:37;101090.09;;;3.53;66.57
30875;BME280;17581;43.222;27.924;2023-01-29T06:04:03;101082.47;;;3.46;66.80
30875;BME280;17581;43.222;27.924;2023-01-29T06:06:28;101095.16;;;3.59;66.72
30875;BME280;17581;43.222;27.924;2023-01-29T06:08:54;101088.97;;;3.59;66.46
30875;BME280;17581;43.222;27.924;2023-01-29T06:11:20;101111.72;;;3.46;66.33
30875;BME280;17581;43.222;27.924;2023-01-29T06:13:46;101104.69;;;3.45;66.74
30875;BME280;17581;43.222;27.924;2023-01-29T06:16:12;101099.28;;;3.46;67.07
30875;BME280;17581;43.222;27.924;2023-01-29T06:18:39;101105.78;;;3.59;66.95
30875;BME280;17581;43.222;27.924;2023-01-29T06:21:07;101103.19;;;3.58;66.53
30875;BME280;17581;43.222;27.924;2023-01-29T06:23:33;101090.09;;;3.53;66.51
30875;BME280;17581;43.222;27.924;2023-01-29T06:26:00;101107.56;;;3.59;66.90
30875;BME280;17581;43.222;27.924;2023-01-29T06:28:26;101114.53;;;3.61;66.89
30875;BME280;17581;43.222;27.924;2023-01-29T06:30:51;101106.38;;;3.66;66.85
30875;BME280;17581;43.222;27.924;2023-01-29T06:33:17;101121.03;;;3.74;66.48
30875;BME280;17581;43.222;27.924;2023-01-29T06:35:42;101127.66;;;3.66;66.59
30875;BME280;17581;43.222;27.924;2023-01-29T06:38:08;101126.50;;;3.71;66.22
30875;BME280;17581;43.222;27.924;2023-01-29T06:40:33;101117.56;;;3.54;66.20
30875;BME280;17581;43.222;27.924;2023-01-29T06:42:59;101140.22;;;3.22;66.94
30875;BME280;17581;43.222;27.924;2023-01-29T06:45:25;101130.28;;;3.27;67.27
30875;BME280;17581;43.222;27.924;2023-01-29T06:47:51;101132.31;;;3.41;67.49
30875;BME280;17581;43.222;27.924;2023-01-29T06:50:16;101142.56;;;3.50;67.48
30875;BME280;17581;43.222;27.924;2023-01-29T06:52:42;101120.09;;;3.57;67.28
30875;BME280;17581;43.222;27.924;2023-01-29T06:55:08;101129.38;;;3.67;67.22
30875;BME280;17581;43.222;27.924;2023-01-29T06:57:33;101118.38;;;3.74;66.39
30875;BME280;17581;43.222;27.924;2023-01-29T06:59:59;101127.88;;;3.80;66.05
30875;BME280;17581;43.222;27.924;2023-01-29T07:02:24;101126.59;;;3.70;65.39
30875;BME280;17581;43.222;27.924;2023-01-29T07:04:50;101117.75;;;3.69;65.68
30875;BME280;17581;43.222;27.924;2023-01-29T07:07:15;101144.66;;;3.82;65.68
30875;BME280;17581;43.222;27.924;2023-01-29T07:09:41;101132.69;;;3.72;65.26
30875;BME280;17581;43.222;27.924;2023-01-29T07:12:09;101154.63;;;3.77;64.83
30875;BME280;17581;43.222;27.924;2023-01-29T07:14:34;101134.44;;;3.53;65.30
30875;BME280;17581;43.222;27.924;2023-01-29T07:17:00;101125.53;;;3.54;65.54
30875;BME280;17581;43.222;27.924;2023-01-29T07:19:25;101118.06;;;3.62;65.72
30875;BME280;17581;43.222;27.924;2023-01-29T07:21:51;101123.88;;;3.51;66.26
30875;BME280;17581;43.222;27.924;2023-01-29T07:24:16;101126.88;;;3.64;65.09
30875;BME280;17581;43.222;27.924;2023-01-29T07:26:43;101119.13;;;3.58;64.95
30875;BME280;17581;43.222;27.924;2023-01-29T07:29:08;101144.44;;;3.48;65.70
30875;BME280;17581;43.222;27.924;2023-01-29T07:31:34;101146.66;;;3.37;65.60
30875;BME280;17581;43.222;27.924;2023-01-29T07:33:59;101143.81;;;3.41;65.75
30875;BME280;17581;43.222;27.924;2023-01-29T07:36:25;101146.13;;;3.49;65.64
30875;BME280;17581;43.222;27.924;2023-01-29T07:38:51;101133.94;;;3.45;65.36
30875;BME280;17581;43.222;27.924;2023-01-29T07:41:17;101169.16;;;3.50;65.48
30875;BME280;17581;43.222;27.924;2023-01-29T07:43:42;101163.19;;;3.45;65.07
30875;BME280;17581;43.222;27.924;2023-01-29T07:46:08;101162.22;;;3.46;65.33
30875;BME280;17581;43.222;27.924;2023-01-29T07:48:33;101173.69;;;3.48;65.14
30875;BME280;17581;43.222;27.924;2023-01-29T07:50:59;101158.84;;;3.62;64.97
30875;BME280;17581;43.222;27.924;2023-01-29T07:53:26;101171.63;;;3.54;64.85
30875;BME280;17581;43.222;27.924;2023-01-29T07:55:51;101190.09;;;3.57;65.45
30875;BME280;17581;43.222;27.924;2023-01-29T07:58:17;101174.25;;;3.74;65.29
30875;BME280;17581;43.222;27.924;2023-01-29T08:00:43;101162.75;;;3.74;64.50
30875;BME280;17581;43.222;27.924;2023-01-29T08:03:11;101177.28;;;3.85;63.69
30875;BME280;17581;43.222;27.924;2023-01-29T08:05:37;101159.19;;;3.94;63.88
30875;BME280;17581;43.222;27.924;2023-01-29T08:08:03;101176.31;;;3.88;63.85
30875;BME280;17581;43.222;27.924;2023-01-29T08:10:29;101165.09;;;4.00;63.18
30875;BME280;17581;43.222;27.924;2023-01-29T08:12:58;101163.00;;;3.88;63.33
30875;BME280;17581;43.222;27.924;2023-01-29T08:15:25;101165.09;;;4.00;63.36
30875;BME280;17581;43.222;27.924;2023-01-29T08:17:51;101179.19;;;4.02;63.21
30875;BME280;17581;43.222;27.924;2023-01-29T08:20:18;101154.03;;;4.09;62.78
30875;BME280;17581;43.222;27.924;2023-01-29T08:22:44;101170.00;;;4.09;63.08
30875;BME280;17581;43.222;27.924;2023-01-29T08:25:09;101169.88;;;4.12;63.40
30875;BME280;17581;43.222;27.924;2023-01-29T08:27:35;101156.47;;;4.14;63.07
30875;BME280;17581;43.222;27.924;2023-01-29T08:30:01;101177.28;;;4.24;63.39
30875;BME280;17581;43.222;27.924;2023-01-29T08:32:26;101166.09;;;4.16;63.36
30875;BME280;17581;43.222;27.924;2023-01-29T08:34:51;101167.63;;;4.03;64.02
30875;BME280;17581;43.222;27.924;2023-01-29T08:37:17;101157.72;;;3.87;64.28
30875;BME280;17581;43.222;27.924;2023-01-29T08:39:42;101159.94;;;3.77;65.17
30875;BME280;17581;43.222;27.924;2023-01-29T08:42:08;101169.84;;;3.73;65.56
30875;BME280;17581;43.222;27.924;2023-01-29T08:44:34;101160.72;;;3.60;65.51
30875;BME280;17581;43.222;27.924;2023-01-29T08:46:59;101175.94;;;3.57;66.75
30875;BME280;17581;43.222;27.924;2023-01-29T08:49:25;101168.88;;;3.56;66.17
30875;BME280;17581;43.222;27.924;2023-01-29T08:51:51;101163.91;;;3.48;66.36
30875;BME280;17581;43.222;27.924;2023-01-29T08:54:16;101142.69;;;3.47;66.80
30875;BME280;17581;43.222;27.924;2023-01-29T08:56:42;101168.97;;;3.54;66.84
30875;BME280;17581;43.222;27.924;2023-01-29T08:59:09;101141.56;;;3.52;66.95
30875;BME280;17581;43.222;27.924;2023-01-29T09:01:34;101166.94;;;3.59;66.51
30875;BME280;17581;43.222;27.924;2023-01-29T09:04:00;101142.94;;;3.61;66.49
30875;BME280;17581;43.222;27.924;2023-01-29T09:06:25;101175.97;;;3.55;66.00
30875;BME280;17581;43.222;27.924;2023-01-29T09:08:51;101158.38;;;3.53;66.07
30875;BME280;17581;43.222;27.924;2023-01-29T09:11:16;101154.84;;;3.52;66.93
30875;BME280;17581;43.222;27.924;2023-01-29T09:13:42;101158.66;;;3.67;66.38
30875;BME280;17581;43.222;27.924;2023-01-29T09:16:08;101152.25;;;3.71;66.47
30875;BME280;17581;43.222;27.924;2023-01-29T09:18:33;101146.78;;;3.74;65.74
30875;BME280;17581;43.222;27.924;2023-01-29T09:20:59;101154.63;;;3.77;65.71
30875;BME280;17581;43.222;27.924;2023-01-29T09:23:26;101158.56;;;3.68;65.46
30875;BME280;17581;43.222;27.924;2023-01-29T09:25:51;101161.03;;;3.73;64.95
30875;BME280;17581;43.222;27.924;2023-01-29T09:28:17;101145.06;;;3.73;64.81
30875;BME280;17581;43.222;27.924;2023-01-29T09:30:43;101143.19;;;3.75;64.94
30875;BME280;17581;43.222;27.924;2023-01-29T09:33:08;101147.31;;;3.82;64.77
30875;BME280;17581;43.222;27.924;2023-01-29T09:35:34;101160.34;;;3.88;64.52
30875;BME280;17581;43.222;27.924;2023-01-29T09:38:00;101144.50;;;3.85;64.35
30875;BME280;17581;43.222;27.924;2023-01-29T09:40:31;101130.25;;;3.86;64.10
30875;BME280;17581;43.222;27.924;2023-01-29T09:43:14;101127.25;;;3.75;64.84
30875;BME280;17581;43.222;27.924;2023-01-29T09:46:03;101125.53;;;3.93;65.11
30875;BME280;17581;43.222;27.924;2023-01-29T09:48:33;101110.72;;;3.87;63.68
30875;BME280;17581;43.222;27.924;2023-01-29T09:51:04;101106.03;;;3.92;63.44
30875;BME280;17581;43.222;27.924;2023-01-29T09:53:39;101135.81;;;4.00;62.94
30875;BME280;17581;43.222;27.924;2023-01-29T09:56:18;101122.81;;;3.94;62.88
30875;BME280;17581;43.222;27.924;2023-01-29T09:58:44;101127.03;;;3.98;63.25
30875;BME280;17581;43.222;27.924;2023-01-29T10:01:36;101121.66;;;4.00;63.11
30875;BME280;17581;43.222;27.924;2023-01-29T10:18:05;101113.44;;;4.04;62.64
30875;BME280;17581;43.222;27.924;2023-01-29T10:23:22;101113.59;;;4.01;62.42
30875;BME280;17581;43.222;27.924;2023-01-29T10:25:49;101134.72;;;3.85;62.11
30875;BME280;17581;43.222;27.924;2023-01-29T10:28:17;101134.84;;;3.82;62.58
30875;BME280;17581;43.222;27.924;2023-01-29T10:30:48;101117.09;;;3.83;62.93
30875;BME280;17581;43.222;27.924;2023-01-29T10:33:26;101126.88;;;3.82;62.75
30875;BME280;17581;43.222;27.924;2023-01-29T10:36:00;101121.34;;;3.87;62.19
30875;BME280;17581;43.222;27.924;2023-01-29T10:38:38;101125.81;;;3.87;61.36
30875;BME280;17581;43.222;27.924;2023-01-29T10:47:06;101137.47;;;3.84;61.86
30875;BME280;17581;43.222;27.924;2023-01-29T11:00:51;101106.66;;;3.60;61.48
30875;BME280;17581;43.222;27.924;2023-01-29T11:03:27;101089.38;;;3.50;61.81
30875;BME280;17581;43.222;27.924;2023-01-29T11:11:17;101107.28;;;3.65;61.52
30875;BME280;17581;43.222;27.924;2023-01-29T11:16:17;101112.66;;;3.83;62.04
30875;BME280;17581;43.222;27.924;2023-01-29T11:18:50;101120.34;;;3.90;60.84
30875;BME280;17581;43.222;27.924;2023-01-29T11:21:16;101122.28;;;3.86;61.12
30875;BME280;17581;43.222;27.924;2023-01-29T11:23:41;101132.63;;;3.92;61.26
30875;BME280;17581;43.222;27.924;2023-01-29T11:26:10;101132.00;;;3.87;61.60
30875;BME280;17581;43.222;27.924;2023-01-29T11:28:44;101131.56;;;3.96;61.77
30875;BME280;17581;43.222;27.924;2023-01-29T11:31:28;101133.44;;;3.94;61.41
30875;BME280;17581;43.222;27.924;2023-01-29T11:34:04;101129.91;;;3.94;61.47
30875;BME280;17581;43.222;27.924;2023-01-29T11:36:35;101153.16;;;3.90;61.50
30875;BME280;17581;43.222;27.924;2023-01-29T11:41:58;101151.84;;;3.99;61.35
30875;BME280;17581;43.222;27.924;2023-01-29T11:47:07;101142.13;;;3.79;61.06
30875;BME280;17581;43.222;27.924;2023-01-29T11:49:35;101129.81;;;3.76;61.05
30875;BME280;17581;43.222;27.924;2023-01-29T11:52:03;101141.47;;;3.74;60.92
30875;BME280;17581;43.222;27.924;2023-01-29T11:54:35;101144.72;;;3.80;61.26
30875;BME280;17581;43.222;27.924;2023-01-29T11:57:03;101123.19;;;3.66;60.81
30875;BME280;17581;43.222;27.924;2023-01-29T11:59:49;101134.16;;;3.79;61.03
30875;BME280;17581;43.222;27.924;2023-01-29T12:04:53;101129.97;;;3.92;60.97
30875;BME280;17581;43.222;27.924;2023-01-29T12:07:19;101133.88;;;3.85;60.87
30875;BME280;17581;43.222;27.924;2023-01-29T12:09:55;101133.16;;;3.81;61.02
30875;BME280;17581;43.222;27.924;2023-01-29T12:12:29;101134.53;;;3.90;61.25
30875;BME280;17581;43.222;27.924;2023-01-29T12:17:37;101128.19;;;3.93;61.11
30875;BME280;17581;43.222;27.924;2023-01-29T12:20:10;101133.38;;;3.96;61.01
30875;BME280;17581;43.222;27.924;2023-01-29T12:25:24;101149.56;;;3.91;60.83
30875;BME280;17581;43.222;27.924;2023-01-29T12:28:12;101151.25;;;3.92;61.09
30875;BME280;17581;43.222;27.924;2023-01-29T12:30:46;101148.00;;;3.85;61.27
30875;BME280;17581;43.222;27.924;2023-01-29T12:33:52;101158.38;;;3.92;60.80
30875;BME280;17581;43.222;27.924;2023-01-29T12:36:30;101147.22;;;3.83;61.04
30875;BME280;17581;43.222;27.924;2023-01-29T12:38:56;101162.31;;;3.83;61.17
30875;BME280;17581;43.222;27.924;2023-01-29T12:44:13;101158.47;;;3.90;60.83
30875;BME280;17581;43.222;27.924;2023-01-29T12:46:44;101164.06;;;3.84;60.97
30875;BME280;17581;43.222;27.924;2023-01-29T12:49:18;101160.91;;;3.76;61.24
30875;BME280;17581;43.222;27.924;2023-01-29T12:51:52;101131.38;;;3.62;61.47
30875;BME280;17581;43.222;27.924;2023-01-29T12:54:27;101158.56;;;3.68;62.16
30875;BME280;17581;43.222;27.924;2023-01-29T12:56:59;101163.16;;;3.65;62.05
30875;BME280;17581;43.222;27.924;2023-01-29T12:59:35;101157.03;;;3.63;62.01
30875;BME280;17581;43.222;27.924;2023-01-29T13:04:47;101156.38;;;3.58;62.82
30875;BME280;17581;43.222;27.924;2023-01-29T13:07:22;101151.88;;;3.60;62.94
30875;BME280;17581;43.222;27.924;2023-01-29T13:09:55;101164.25;;;3.79;62.40
30875;BME280;17581;43.222;27.924;2023-01-29T13:12:22;101157.97;;;3.82;62.53
30875;BME280;17581;43.222;27.924;2023-01-29T13:14:58;101167.50;;;3.86;61.82
30875;BME280;17581;43.222;27.924;2023-01-29T13:17:33;101160.47;;;3.85;61.91
30875;BME280;17581;43.222;27.924;2023-01-29T13:20:17;101169.75;;;3.95;61.40
30875;BME280;17581;43.222;27.924;2023-01-29T13:22:45;101173.28;;;3.96;61.11
30875;BME280;17581;43.222;27.924;2023-01-29T13:25:16;101172.31;;;3.78;61.29
30875;BME280;17581;43.222;27.924;2023-01-29T13:27:43;101181.41;;;3.93;61.42
30875;BME280;17581;43.222;27.924;2023-01-29T13:30:26;101186.66;;;3.94;60.60
30875;BME280;17581;43.222;27.924;2023-01-29T13:32:53;101178.00;;;3.89;60.60
30875;BME280;17581;43.222;27.924;2023-01-29T13:35:20;101185.47;;;3.81;60.99
30875;BME280;17581;43.222;27.924;2023-01-29T13:37:52;101183.34;;;3.89;60.53
30875;BME280;17581;43.222;27.924;2023-01-29T13:42:46;101197.81;;;4.02;60.69
30875;BME280;17581;43.222;27.924;2023-01-29T13:45:22;101197.59;;;4.07;59.55
30875;BME280;17581;43.222;27.924;2023-01-29T13:47:50;101188.84;;;4.05;59.67
30875;BME280;17581;43.222;27.924;2023-01-29T13:53:40;101199.34;;;4.26;58.67
30875;BME280;17581;43.222;27.924;2023-01-29T13:59:04;101184.53;;;4.39;58.42
30875;BME280;17581;43.222;27.924;2023-01-29T14:04:25;101183.47;;;4.25;57.84
30875;BME280;17581;43.222;27.924;2023-01-29T14:07:01;101194.75;;;4.30;57.36
30875;BME280;17581;43.222;27.924;2023-01-29T14:12:29;101199.66;;;4.39;56.81
30875;BME280;17581;43.222;27.924;2023-01-29T14:17:21;101198.66;;;4.42;56.58
30875;BME280;17581;43.222;27.924;2023-01-29T14:20:00;101190.03;;;4.36;56.67
30875;BME280;17581;43.222;27.924;2023-01-29T14:22:28;101203.25;;;4.38;56.85
30875;BME280;17581;43.222;27.924;2023-01-29T14:24:59;101197.72;;;4.43;56.77
30875;BME280;17581;43.222;27.924;2023-01-29T14:27:26;101206.44;;;4.46;56.65
30875;BME280;17581;43.222;27.924;2023-01-29T14:30:06;101200.38;;;4.43;56.59
30875;BME280;17581;43.222;27.924;2023-01-29T14:32:37;101213.03;;;4.37;56.43
30875;BME280;17581;43.222;27.924;2023-01-29T14:35:15;101211.47;;;4.33;56.97
30875;BME280;17581;43.222;27.924;2023-01-29T14:37:48;101211.03;;;4.24;57.22
30875;BME280;17581;43.222;27.924;2023-01-29T14:43:02;101220.09;;;4.38;56.99
30875;BME280;17581;43.222;27.924;2023-01-29T14:45:31;101213.03;;;4.37;56.93
30875;BME280;17581;43.222;27.924;2023-01-29T14:50:38;101219.94;;;4.42;56.88
30875;BME280;17581;43.222;27.924;2023-01-29T14:53:24;101225.22;;;4.43;57.21
30875;BME280;17581;43.222;27.924;2023-01-29T14:58:41;101219.50;;;4.51;57.21
30875;BME280;17581;43.222;27.924;2023-01-29T15:01:18;101219.47;;;4.52;56.77
30875;BME280;17581;43.222;27.924;2023-01-29T15:03:46;101226.34;;;4.37;56.86
30875;BME280;17581;43.222;27.924;2023-01-29T15:06:44;101216.78;;;4.33;57.40
30875;BME280;17581;43.222;27.924;2023-01-29T15:12:10;101217.72;;;4.32;57.72
30875;BME280;17581;43.222;27.924;2023-01-29T15:17:28;101221.59;;;4.25;58.07
30875;BME280;17581;43.222;27.924;2023-01-29T15:19:55;101224.09;;;4.28;58.12
30875;BME280;17581;43.222;27.924;2023-01-29T15:22:22;101223.69;;;4.19;58.13
30875;BME280;17581;43.222;27.924;2023-01-29T15:25:13;101227.13;;;4.21;58.95